地図

経路データ

SID SEASON NUMBER BASIN SUBBASIN NAME ISO_TIME NATURE LAT LON WMO_WIND WMO_PRES WMO_AGENCY TRACK_TYPE DIST2LAND LANDFALL IFLAG USA_AGENCY USA_ATCF_ID USA_LAT USA_LON USA_RECORD USA_STATUS USA_WIND USA_PRES USA_SSHS USA_R34_NE USA_R34_SE USA_R34_SW USA_R34_NW USA_R50_NE USA_R50_SE USA_R50_SW USA_R50_NW USA_R64_NE USA_R64_SE USA_R64_SW USA_R64_NW USA_POCI USA_ROCI USA_RMW USA_EYE TOKYO_LAT TOKYO_LON TOKYO_GRADE TOKYO_WIND TOKYO_PRES TOKYO_R50_DIR TOKYO_R50_LONG TOKYO_R50_SHORT TOKYO_R30_DIR TOKYO_R30_LONG TOKYO_R30_SHORT TOKYO_LAND CMA_LAT CMA_LON CMA_CAT CMA_WIND CMA_PRES HKO_LAT HKO_LON HKO_CAT HKO_WIND HKO_PRES NEWDELHI_LAT NEWDELHI_LON NEWDELHI_GRADE NEWDELHI_WIND NEWDELHI_PRES NEWDELHI_CI NEWDELHI_DP NEWDELHI_POCI REUNION_LAT REUNION_LON REUNION_TYPE REUNION_WIND REUNION_PRES REUNION_TNUM REUNION_CI REUNION_RMW REUNION_R34_NE REUNION_R34_SE REUNION_R34_SW REUNION_R34_NW REUNION_R50_NE REUNION_R50_SE REUNION_R50_SW REUNION_R50_NW REUNION_R64_NE REUNION_R64_SE REUNION_R64_SW REUNION_R64_NW BOM_LAT BOM_LON BOM_TYPE BOM_WIND BOM_PRES BOM_TNUM BOM_CI BOM_RMW BOM_R34_NE BOM_R34_SE BOM_R34_SW BOM_R34_NW BOM_R50_NE BOM_R50_SE BOM_R50_SW BOM_R50_NW BOM_R64_NE BOM_R64_SE BOM_R64_SW BOM_R64_NW BOM_ROCI BOM_POCI BOM_EYE BOM_POS_METHOD BOM_PRES_METHOD NADI_LAT NADI_LON NADI_CAT NADI_WIND NADI_PRES WELLINGTON_LAT WELLINGTON_LON WELLINGTON_WIND WELLINGTON_PRES DS824_LAT DS824_LON DS824_STAGE DS824_WIND DS824_PRES TD9636_LAT TD9636_LON TD9636_STAGE TD9636_WIND TD9636_PRES TD9635_LAT TD9635_LON TD9635_WIND TD9635_PRES TD9635_ROCI NEUMANN_LAT NEUMANN_LON NEUMANN_CLASS NEUMANN_WIND NEUMANN_PRES MLC_LAT MLC_LON MLC_CLASS MLC_WIND MLC_PRES USA_GUST BOM_GUST BOM_GUST_PER REUNION_GUST REUNION_GUST_PER USA_SEAHGT USA_SEARAD_NE USA_SEARAD_SE USA_SEARAD_SW USA_SEARAD_NW STORM_SPEED STORM_DIR
1879070S11063 1879 5 SI MM NOT_NAMED 1879-03-11 00:00:00 TS -11.0000 63.3000 main 1181 1161 _________O____ -1 -11.0000 63.3000 TC 5 233
1879070S11063 1879 5 SI MM NOT_NAMED 1879-03-11 03:00:00 TS -11.1500 63.0975 main 1151 1131 _________P____ -1 -11.1500 63.0975 TC 5 232
1879070S11063 1879 5 SI MM NOT_NAMED 1879-03-11 06:00:00 TS -11.3000 62.9000 main 1131 1110 _________O____ -1 -11.3000 62.9000 TC 5 232
1879070S11063 1879 5 SI MM NOT_NAMED 1879-03-11 09:00:00 TS -11.4500 62.7075 main 1110 1080 _________P____ -1 -11.4500 62.7075 TC 5 232
1879070S11063 1879 5 SI MM NOT_NAMED 1879-03-11 12:00:00 TS -11.6000 62.5000 main 1080 1060 _________O____ -1 -11.6000 62.5000 TC 5 237
1879070S11063 1879 5 SI MM NOT_NAMED 1879-03-11 15:00:00 TS -11.7425 62.2500 main 1055 1026 _________P____ -1 -11.7425 62.2500 TC 6 238
1879070S11063 1879 5 SI MM NOT_NAMED 1879-03-11 18:00:00 TS -11.9000 62.0000 main 1026 996 _________O____ -1 -11.9000 62.0000 TC 5 231
1879070S11063 1879 5 SI MM NOT_NAMED 1879-03-11 21:00:00 TS -12.0849 61.8149 main 996 967 _________P____ -1 -12.0849 61.8149 TC 6 224
1879070S11063 1879 5 SI MM NOT_NAMED 1879-03-12 00:00:00 TS -12.3000 61.6000 main 967 933 _________O____ -1 -12.3000 61.6000 TC 7 230
1879070S11063 1879 5 SI MM NOT_NAMED 1879-03-12 03:00:00 TS -12.5350 61.2725 main 933 885 _________P____ -1 -12.5350 61.2725 TC 8 234
1879070S11063 1879 5 SI MM NOT_NAMED 1879-03-12 06:00:00 TS -12.8000 60.9000 main 885 842 _________O____ -1 -12.8000 60.9000 TC 9 232
1879070S11063 1879 5 SI MM NOT_NAMED 1879-03-12 09:00:00 TS -13.1000 60.5350 main 838 795 _________P____ -1 -13.1000 60.5350 TC 9 229
1879070S11063 1879 5 SI MM NOT_NAMED 1879-03-12 12:00:00 TS -13.4000 60.2000 main 795 764 _________O____ -1 -13.4000 60.2000 TC 8 227
1879070S11063 1879 5 SI MM NOT_NAMED 1879-03-12 15:00:00 TS -13.6574 59.9274 main 753 725 _________P____ -1 -13.6574 59.9274 TC 7 224
1879070S11063 1879 5 SI MM NOT_NAMED 1879-03-12 18:00:00 TS -13.9000 59.7000 main 725 698 _________O____ -1 -13.9000 59.7000 TC 6 219
1879070S11063 1879 5 SI MM NOT_NAMED 1879-03-12 21:00:00 TS -14.1424 59.5223 main 698 660 _________P____ -1 -14.1424 59.5223 TC 6 218
1879070S11063 1879 5 SI MM NOT_NAMED 1879-03-13 00:00:00 TS -14.4000 59.3000 main 660 617 _________O____ -1 -14.4000 59.3000 TC 8 227
1879070S11063 1879 5 SI MM NOT_NAMED 1879-03-13 03:00:00 TS -14.6851 58.9225 main 617 576 _________P____ -1 -14.6851 58.9225 TC 10 232
1879070S11063 1879 5 SI MM NOT_NAMED 1879-03-13 06:00:00 TS -15.0000 58.5000 main 576 539 _________O____ -1 -15.0000 58.5000 TC 10 229
1879070S11063 1879 5 SI MM NOT_NAMED 1879-03-13 09:00:00 TS -15.3424 58.1349 main 538 492 _________P____ -1 -15.3424 58.1349 TC 10 224
1879070S11063 1879 5 SI MM NOT_NAMED 1879-03-13 12:00:00 TS -15.7000 57.8000 main 492 458 _________O____ -1 -15.7000 57.8000 TC 9 221
1879070S11063 1879 5 SI MM NOT_NAMED 1879-03-13 15:00:00 TS -16.0424 57.4923 main 458 415 _________P____ -1 -16.0424 57.4923 TC 9 219
1879070S11063 1879 5 SI MM NOT_NAMED 1879-03-13 18:00:00 TS -16.4000 57.2000 main 415 374 _________O____ -1 -16.4000 57.2000 TC 10 217
1879070S11063 1879 5 SI MM NOT_NAMED 1879-03-13 21:00:00 TS -16.8075 56.9000 main 374 338 _________P____ -1 -16.8075 56.9000 TC 10 216
1879070S11063 1879 5 SI MM NOT_NAMED 1879-03-14 00:00:00 TS -17.2000 56.6000 main 338 317 _________O____ -1 -17.2000 56.6000 TC 9 220
1879070S11063 1879 5 SI MM NOT_NAMED 1879-03-14 03:00:00 TS -17.5075 56.2923 main 317 301 _________P____ -1 -17.5075 56.2923 TC 8 224
1879070S11063 1879 5 SI MM NOT_NAMED 1879-03-14 06:00:00 TS -17.8000 56.0000 main 301 286 _________O____ -1 -17.8000 56.0000 TC 8 220
1879070S11063 1879 5 SI MM NOT_NAMED 1879-03-14 09:00:00 TS -18.1425 55.7349 main 292 275 _________P____ -1 -18.1425 55.7349 TC 9 214
1879070S11063 1879 5 SI MM NOT_NAMED 1879-03-14 12:00:00 TS -18.5000 55.5000 main 275 246 _________O____ -1 -18.5000 55.5000 TC 8 211
1879070S11063 1879 5 SI MM NOT_NAMED 1879-03-14 15:00:00 TS -18.8500 55.2924 main 246 202 _________P____ -1 -18.8500 55.2924 TC 8 208
1879070S11063 1879 5 SI MM NOT_NAMED 1879-03-14 18:00:00 TS -19.2000 55.1000 main 202 162 _________O____ -1 -19.2000 55.1000 TC 8 208
1879070S11063 1879 5 SI MM NOT_NAMED 1879-03-14 21:00:00 TS -19.5725 54.8851 main 162 137 _________P____ -1 -19.5725 54.8851 TC 8 208
1879070S11063 1879 5 SI MM NOT_NAMED 1879-03-15 00:00:00 TS -19.9000 54.7000 main 137 124 _________O____ -1 -19.9000 54.7000 TC 6 207
1879070S11063 1879 5 SI MM NOT_NAMED 1879-03-15 03:00:00 TS -20.1225 54.5849 main 124 114 _________P____ -1 -20.1225 54.5849 TC 4 205
1879070S11063 1879 5 SI MM NOT_NAMED 1879-03-15 06:00:00 TS -20.3000 54.5000 main 114 106 _________O____ -1 -20.3000 54.5000 TC 4 205
1879070S11063 1879 5 SI MM NOT_NAMED 1879-03-15 09:00:00 TS -20.5000 54.4000 main 106 100 _________P____ -1 -20.5000 54.4000 TC 4 205
1879070S11063 1879 5 SI MM NOT_NAMED 1879-03-15 12:00:00 TS -20.7000 54.3000 main 103 99 _________O____ -1 -20.7000 54.3000 TC 4 206
1879070S11063 1879 5 SI MM NOT_NAMED 1879-03-15 15:00:00 TS -20.8925 54.1925 main 106 104 _________P____ -1 -20.8925 54.1925 TC 4 205
1879070S11063 1879 5 SI MM NOT_NAMED 1879-03-15 18:00:00 TS -21.1000 54.1000 main 114 114 _________O____ -1 -21.1000 54.1000 TC 5 198
1879070S11063 1879 5 SI MM NOT_NAMED 1879-03-15 21:00:00 TS -21.3650 54.0350 main 128 128 _________P____ -1 -21.3650 54.0350 TC 5 191
1879070S11063 1879 5 SI MM NOT_NAMED 1879-03-16 00:00:00 TS -21.6000 54.0000 main 136 136 _________O____ -1 -21.6000 54.0000 TC 4 187
1879070S11063 1879 5 SI MM NOT_NAMED 1879-03-16 03:00:00 TS -21.7225 53.9925 main 141 141 _________P____ -1 -21.7225 53.9925 TC 2 172
1879070S11063 1879 5 SI MM NOT_NAMED 1879-03-16 06:00:00 TS -21.8000 54.0000 main 145 145 _________O____ -1 -21.8000 54.0000 TC 2 175
1879070S11063 1879 5 SI MM NOT_NAMED 1879-03-16 09:00:00 TS -21.9075 54.0000 main 150 150 _________P____ -1 -21.9075 54.0000 TC 2 172
1879070S11063 1879 5 SI MM NOT_NAMED 1879-03-16 12:00:00 TS -22.0000 54.0000 main 155 155 _________O____ -1 -22.0000 54.0000 TC 1 177
1879070S11063 1879 5 SI MM NOT_NAMED 1879-03-16 15:00:00 TS -22.0500 54.0000 main 155 161 _________P____ -1 -22.0500 54.0000 TC 1 0
1879070S11063 1879 5 SI MM NOT_NAMED 1879-03-16 18:00:00 TS -22.1000 54.0000 main 161 161 _________O____ -1 -22.1000 54.0000 TC 1 0
1879070S11063 1879 5 SI MM NOT_NAMED 1879-03-16 21:00:00 TS -22.1400 54.0000 main 161 161 _________P____ -1 -22.1400 54.0000 TC 2 172
1879070S11063 1879 5 SI MM NOT_NAMED 1879-03-17 00:00:00 TS -22.3000 54.0000 main 174 174 _________O____ -1 -22.3000 54.0000 TC 6 181
1879070S11063 1879 5 SI MM NOT_NAMED 1879-03-17 03:00:00 TS -22.7050 53.9926 main 206 206 _________P____ -1 -22.7050 53.9926 TC 9 0
1879070S11063 1879 5 SI MM NOT_NAMED 1879-03-17 06:00:00 TS -23.2000 54.0000 main 251 251 _________O____ -1 -23.2000 54.0000 TC 9 177
1879070S11063 1879 5 SI MM NOT_NAMED 1879-03-17 09:00:00 TS -23.6000 54.0350 main 289 289 _________P____ -1 -23.6000 54.0350 TC 8 174
1879070S11063 1879 5 SI MM NOT_NAMED 1879-03-17 12:00:00 TS -24.0000 54.1000 main 325 325 _________O____ -1 -24.0000 54.1000 TC 9 171
1879070S11063 1879 5 SI MM NOT_NAMED 1879-03-17 15:00:00 TS -24.4500 54.1850 main 364 364 _________P____ -1 -24.4500 54.1850 TC 9 169
1879070S11063 1879 5 SI MM NOT_NAMED 1879-03-17 18:00:00 TS -24.9000 54.3000 main 413 413 _________O____ -1 -24.9000 54.3000 TC 9 165
1879070S11063 1879 5 SI MM NOT_NAMED 1879-03-17 21:00:00 TS -25.3150 54.4351 main 452 452 _________P____ -1 -25.3150 54.4351 TC 8 161
1879070S11063 1879 5 SI MM NOT_NAMED 1879-03-18 00:00:00 TS -25.7000 54.6000 main 491 491 _________O____ -1 -25.7000 54.6000 TC 8 157
1879070S11063 1879 5 SI MM NOT_NAMED 1879-03-18 03:00:00 TS -26.0575 54.7926 main 531 531 _________P____ -1 -26.0575 54.7926 TC 8 153
1879070S11063 1879 5 SI MM NOT_NAMED 1879-03-18 06:00:00 TS -26.4000 55.0000 main 562 562 _________O____ -1 -26.4000 55.0000 TC 8 152
1879070S11063 1879 5 SI MM NOT_NAMED 1879-03-18 09:00:00 TS -26.7575 55.2001 main 604 604 _________P____ -1 -26.7575 55.2001 TC 8 153
1879070S11063 1879 5 SI MM NOT_NAMED 1879-03-18 12:00:00 TS -27.1000 55.4000 main 637 637 _________O____ -1 -27.1000 55.4000 TC 7 152
1879070S11063 1879 5 SI MM NOT_NAMED 1879-03-18 15:00:00 TS -27.4074 55.5927 main 670 670 _________P____ -1 -27.4074 55.5927 TC 7 149
1879070S11063 1879 5 SI MM NOT_NAMED 1879-03-18 18:00:00 TS -27.7000 55.8000 main 704 704 _________O____ -1 -27.7000 55.8000 TC 7 146
1879070S11063 1879 5 SI MM NOT_NAMED 1879-03-18 21:00:00 TS -27.9773 56.0205 main 738 738 _________P____ -1 -27.9773 56.0205 TC 7 144
1879070S11063 1879 5 SI MM NOT_NAMED 1879-03-19 00:00:00 TS -28.3000 56.3000 main 774 774 _________O____ -1 -28.3000 56.3000 TC 10 143
1879070S11063 1879 5 SI MM NOT_NAMED 1879-03-19 03:00:00 TS -28.7350 56.6699 main 823 823 _________P____ -1 -28.7350 56.6699 TC 11 142
1879070S11063 1879 5 SI MM NOT_NAMED 1879-03-19 06:00:00 TS -29.2000 57.1000 main 884 884 _________O____ -1 -29.2000 57.1000 TC 12 139
1879070S11063 1879 5 SI MM NOT_NAMED 1879-03-19 09:00:00 TS -29.6149 57.5428 main 935 935 _________P____ -1 -29.6149 57.5428 TC 11 136
1879070S11063 1879 5 SI MM NOT_NAMED 1879-03-19 12:00:00 TS -30.0000 58.0000 main 990 990 _________O____ -1 -30.0000 58.0000 TC 11 134
1879070S11063 1879 5 SI MM NOT_NAMED 1879-03-19 15:00:00 TS -30.3573 58.4430 main 1043 1043 _________P____ -1 -30.3573 58.4430 TC 10 132
1879070S11063 1879 5 SI MM NOT_NAMED 1879-03-19 18:00:00 TS -30.7000 58.9000 main 1089 1089 _________O____ -1 -30.7000 58.9000 TC 11 130
1879070S11063 1879 5 SI MM NOT_NAMED 1879-03-19 21:00:00 TS -31.0480 59.3891 main 1136 1136 _________P____ -1 -31.0480 59.3891 TC 11 129
1879070S11063 1879 5 SI MM NOT_NAMED 1879-03-20 00:00:00 TS -31.4000 59.9000 main 1195 _________O____ -1 -31.4000 59.9000 TC 11 129

IBTrACS Databaseについて

本データベースは、米国NOAAが公開する1842年以降の世界の熱帯低気圧のベストトラックデータアーカイブInternational Best Track Archive for Climate Stewardship (IBTrACS)を、ウェブで閲覧しやすい形式に変換したものです。

最終更新日:2021-10-08